Time;durP1;ratioP1;P1;durP2;ratioP2;P2;SDS_P1;SDS_P2;PMS_P1;PMS_P2;Temp;Humidity;BMP_temperature;BMP_pressure;BME280_temperature;BME280_humidity;BME280_pressure;Samples;Min_cycle;Max_cycle;Signal;HPM_P1;HPM_P2
2022/01/12 00:34:12;;;;;;;100.55;61.50;;;0.90;99.90;;;;;;6083915;23;20178;-89
2022/01/12 00:39:56;;;;;;;90.38;52.95;;;0.90;99.90;;;;;;5832168;24;20192;-89
2022/01/12 01:00:17;;;;;;;89.70;44.70;;;0.90;99.90;;;;;;6063785;23;20158;-89
2022/01/12 01:30:58;;;;;;;89.03;43.20;;;0.50;99.90;;;;;;6067452;23;20163;-88
2022/01/12 01:34:08;;;;;;;;;;;;;;;;;;;;;
2022/01/12 01:41:07;;;;;;;82.13;35.13;;;0.50;99.90;;;;;;5946339;23;20207;-88
2022/01/12 02:03:01;;;;;;;85.13;40.42;;;0.80;99.90;;;;;;5996226;23;20739;-89
2022/01/12 02:09:35;;;;;;;84.68;38.50;;;0.70;99.90;;;;;;6010372;23;20214;-90
2022/01/12 02:12:05;;;;;;;83.57;40.70;;;0.70;99.90;;;;;;6010880;23;20149;-90
2022/01/12 02:41:25;;;;;;;84.07;36.70;;;1.00;99.90;;;;;;6000236;23;20178;-90
2022/01/12 03:07:49;;;;;;;87.45;37.85;;;0.80;99.90;;;;;;5957398;24;20182;-90
2022/01/12 03:11:31;;;;;;;87.32;40.28;;;0.70;99.90;;;;;;5948767;23;20151;-90
2022/01/12 03:20:15;;;;;;;87.82;39.55;;;0.70;99.90;;;;;;6012280;23;20206;-88
2022/01/12 03:26:27;;;;;;;;;;;;;;;;;;;;;
2022/01/12 03:29:41;;;;;;;87.60;43.28;;;0.80;99.90;;;;;;5961489;23;20232;-88
2022/01/12 03:38:42;;;;;;;90.82;44.63;;;0.90;99.90;;;;;;6011979;23;20184;-88
2022/01/12 03:41:49;;;;;;;;;;;;;;;;;;;;;
2022/01/12 03:45:07;;;;;;;;;;;;;;;;;;;;;
2022/01/12 03:54:26;;;;;;;82.88;32.75;;;0.80;99.90;;;;;;5899181;24;20252;-88
2022/01/12 03:58:11;;;;;;;;;;;;;;;;;;;;;
2022/01/12 04:01:00;;;;;;;82.35;32.90;;;0.80;99.90;;;;;;6010897;23;20236;-88
2022/01/12 04:18:51;;;;;;;90.70;55.75;;;0.80;99.90;;;;;;6103709;23;20284;-88
2022/01/12 04:21:49;;;;;;;89.22;49.08;;;0.80;99.90;;;;;;6100873;23;20648;-88
2022/01/12 04:27:14;;;;;;;;;;;;;;;;;;;;;
2022/01/12 04:29:56;;;;;;;89.82;46.00;;;0.80;99.90;;;;;;6095669;23;20143;-88
2022/01/12 04:32:49;;;;;;;88.18;53.90;;;0.90;99.90;;;;;;6129286;23;20255;-88
2022/01/12 04:35:16;;;;;;;91.00;43.42;;;0.90;99.90;;;;;;6103840;23;20181;-89
2022/01/12 04:39:30;;;;;;;89.47;47.58;;;0.90;99.90;;;;;;6104165;23;20183;-90
2022/01/12 04:41:26;;;;;;;85.43;35.38;;;1.00;99.90;;;;;;6036063;23;20159;-91
2022/01/12 04:57:41;;;;;;;89.45;41.53;;;1.10;99.90;;;;;;6152925;23;20207;-90
2022/01/12 05:26:00;;;;;;;91.63;41.20;;;1.20;99.90;;;;;;6072745;23;20230;-90
2022/01/12 05:32:13;;;;;;;88.78;41.08;;;1.20;99.90;;;;;;6101442;23;20208;-90
2022/01/12 05:35:06;;;;;;;95.38;47.22;;;1.30;99.90;;;;;;6105744;23;20222;-90
2022/01/12 05:38:12;;;;;;;86.93;46.40;;;1.40;99.90;;;;;;6135418;23;20185;-90
2022/01/12 05:44:56;;;;;;;86.90;40.78;;;1.40;99.90;;;;;;6099768;23;20219;-90
2022/01/12 05:54:43;;;;;;;86.85;38.03;;;1.40;99.90;;;;;;6014211;23;20193;-90
2022/01/12 05:57:47;;;;;;;92.35;43.67;;;1.30;99.90;;;;;;6003090;23;20293;-90
2022/01/12 06:00:41;;;;;;;90.93;48.17;;;1.30;99.90;;;;;;6043572;23;20152;-90
2022/01/12 06:05:54;;;;;;;90.30;51.13;;;1.30;99.90;;;;;;6122963;23;20285;-90
2022/01/12 06:12:36;;;;;;;91.65;50.45;;;1.40;99.90;;;;;;5988664;23;20431;-90
2022/01/12 06:19:28;;;;;;;87.93;38.38;;;1.40;99.90;;;;;;5976031;24;20166;-90
2022/01/12 06:23:00;;;;;;;88.30;39.95;;;1.30;99.90;;;;;;5989497;23;20554;-90
2022/01/12 06:25:39;;;;;;;86.72;43.63;;;1.30;99.90;;;;;;6067509;23;20171;-90
2022/01/12 06:31:55;;;;;;;88.22;40.10;;;1.40;99.90;;;;;;5961628;24;20170;-90
2022/01/12 06:34:23;;;;;;;94.80;52.05;;;1.40;99.90;;;;;;5938888;24;20178;-90
2022/01/12 06:40:12;;;;;;;94.25;49.67;;;1.30;99.90;;;;;;6118166;23;20153;-90
2022/01/12 06:42:53;;;;;;;88.47;49.10;;;1.40;99.90;;;;;;6110991;23;20147;-90
2022/01/12 06:53:09;;;;;;;86.93;44.35;;;1.40;99.90;;;;;;6038472;23;20160;-90
2022/01/12 06:55:57;;;;;;;83.80;40.08;;;1.40;99.90;;;;;;6109591;23;20179;-90
2022/01/12 07:46:00;;;;;;;87.88;46.03;;;1.30;99.90;;;;;;6078006;23;20197;-88
2022/01/12 07:49:15;;;;;;;90.15;44.88;;;1.40;99.90;;;;;;6075815;23;20247;-88
2022/01/12 07:52:41;;;;;;;87.75;43.50;;;1.40;99.90;;;;;;6032669;23;20149;-88
2022/01/12 07:55:11;;;;;;;87.32;44.45;;;1.40;99.90;;;;;;6131233;23;20197;-88
2022/01/12 08:01:18;;;;;;;94.63;54.78;;;1.60;99.90;;;;;;6166860;23;20610;-88
2022/01/12 08:14:27;;;;;;;92.80;51.72;;;1.70;99.90;;;;;;6185779;23;20189;-87
2022/01/12 08:17:19;;;;;;;92.18;50.83;;;1.80;99.90;;;;;;6138338;23;20193;-87
2022/01/12 08:19:56;;;;;;;89.72;39.90;;;1.80;99.90;;;;;;6131708;23;20595;-87
2022/01/12 08:22:37;;;;;;;91.05;48.25;;;1.90;99.90;;;;;;6135855;23;20196;-87
2022/01/12 08:25:04;;;;;;;90.28;48.15;;;1.80;99.90;;;;;;6160477;23;20165;-87
2022/01/12 08:27:30;;;;;;;89.88;39.72;;;1.80;99.90;;;;;;6133699;23;20584;-87
2022/01/12 08:30:16;;;;;;;88.47;41.35;;;1.90;99.90;;;;;;6158949;23;20584;-87
2022/01/12 08:32:50;;;;;;;87.75;40.00;;;1.90;99.90;;;;;;6133485;23;20157;-87
2022/01/12 08:35:19;;;;;;;94.32;42.30;;;2.00;99.90;;;;;;6132841;23;20239;-87
2022/01/12 08:37:48;;;;;;;92.05;49.38;;;2.00;99.90;;;;;;6132560;23;20679;-87
2022/01/12 08:40:18;;;;;;;90.65;44.90;;;2.00;99.90;;;;;;6160831;23;20234;-87
2022/01/12 08:42:56;;;;;;;84.10;38.65;;;1.90;99.90;;;;;;6137028;23;20142;-88
2022/01/12 08:45:25;;;;;;;86.10;39.88;;;2.00;99.90;;;;;;6136717;23;20165;-88
2022/01/12 08:48:01;;;;;;;91.07;44.00;;;2.10;99.90;;;;;;6135234;23;20146;-87
2022/01/12 08:50:57;;;;;;;;;;;;;;;;;;;;;
2022/01/12 08:53:33;;;;;;;91.57;46.30;;;1.90;99.90;;;;;;6163247;23;20520;-88
2022/01/12 08:56:04;;;;;;;90.72;42.85;;;2.00;99.90;;;;;;6133821;23;20173;-88
2022/01/12 08:58:49;;;;;;;91.50;50.45;;;2.00;99.90;;;;;;6134685;23;20153;-88
2022/01/12 09:01:40;;;;;;;91.10;46.25;;;2.00;99.90;;;;;;6133947;23;20544;-87
2022/01/12 09:04:36;;;;;;;90.95;45.13;;;2.10;99.90;;;;;;6130976;23;20477;-87
2022/01/12 09:07:11;;;;;;;88.68;37.90;;;2.10;99.90;;;;;;6160265;23;20145;-87
2022/01/12 09:10:33;;;;;;;90.60;51.97;;;2.10;99.90;;;;;;6134235;23;20599;-87
2022/01/12 09:13:18;;;;;;;91.50;45.63;;;2.10;99.90;;;;;;6132985;23;20241;-87
2022/01/12 09:16:06;;;;;;;97.20;51.30;;;2.10;99.90;;;;;;6133627;23;20631;-87
2022/01/12 09:18:57;;;;;;;98.75;51.53;;;2.10;99.90;;;;;;6130995;23;20516;-87
2022/01/12 09:21:43;;;;;;;94.30;46.58;;;2.20;99.90;;;;;;6134646;23;20142;-87
2022/01/12 09:24:19;;;;;;;93.70;50.63;;;2.20;99.90;;;;;;6133385;23;20173;-87
2022/01/12 09:27:16;;;;;;;93.75;50.75;;;2.20;99.90;;;;;;6160354;23;20488;-87
2022/01/12 09:30:19;;;;;;;89.38;50.85;;;2.30;99.90;;;;;;6130283;23;20150;-87
2022/01/12 09:32:54;;;;;;;89.85;40.03;;;2.30;99.90;;;;;;6130852;23;20161;-87
2022/01/12 09:35:40;;;;;;;91.85;43.13;;;2.50;99.90;;;;;;6159300;23;20492;-87
2022/01/12 09:38:13;;;;;;;94.60;43.92;;;2.60;99.90;;;;;;6132302;23;20160;-87
2022/01/12 09:41:24;;;;;;;87.45;40.88;;;2.60;99.90;;;;;;6133537;23;20146;-87
2022/01/12 09:44:01;;;;;;;84.80;34.05;;;2.60;99.90;;;;;;6131745;23;20217;-88
2022/01/12 09:47:24;;;;;;;84.10;29.55;;;2.70;99.90;;;;;;6133506;23;20145;-87
2022/01/12 09:49:32;;;;;;;;;;;;;;;;;;;;;
2022/01/12 09:52:08;;;;;;;85.25;30.95;;;2.80;99.90;;;;;;6159651;23;20228;-87
2022/01/12 09:55:05;;;;;;;88.57;32.28;;;2.80;99.90;;;;;;6133244;23;20196;-88
2022/01/12 09:57:44;;;;;;;89.78;31.73;;;2.90;99.90;;;;;;6125125;23;20285;-88
2022/01/12 10:00:36;;;;;;;84.88;29.15;;;2.90;99.90;;;;;;6133328;23;20237;-87
2022/01/12 10:03:23;;;;;;;86.47;29.52;;;2.90;99.90;;;;;;6130592;23;20146;-87
2022/01/12 10:06:00;;;;;;;;;;;;;;;;;;;;;
2022/01/12 10:08:35;;;;;;;86.80;34.95;;;3.00;99.90;;;;;;6158685;23;20532;-88
2022/01/12 10:11:33;;;;;;;89.95;37.33;;;3.00;99.90;;;;;;6159282;23;20507;-88
2022/01/12 10:16:48;;;;;;;86.00;36.03;;;3.00;99.90;;;;;;6100288;23;20525;-87
2022/01/12 10:19:35;;;;;;;86.95;38.33;;;3.00;99.90;;;;;;6100534;23;20159;-88
2022/01/12 10:22:19;;;;;;;89.43;41.53;;;3.00;99.90;;;;;;6075442;23;20178;-88
2022/01/12 10:24:53;;;;;;;89.75;40.67;;;3.00;99.90;;;;;;6074913;23;20175;-88
2022/01/12 10:27:38;;;;;;;90.38;42.97;;;3.10;99.90;;;;;;6101258;23;20128;-88
2022/01/12 10:30:16;;;;;;;88.35;37.45;;;3.10;99.90;;;;;;6074719;23;20222;-88
2022/01/12 10:33:16;;;;;;;92.05;43.63;;;3.10;99.90;;;;;;6100658;23;20554;-88
2022/01/12 10:35:43;;;;;;;90.97;48.03;;;3.10;99.90;;;;;;6068875;23;20741;-88
2022/01/12 10:38:10;;;;;;;95.07;46.72;;;3.20;99.90;;;;;;6099880;23;20605;-88
2022/01/12 10:41:10;;;;;;;89.40;38.92;;;3.20;99.90;;;;;;6074352;23;20594;-87
2022/01/12 10:44:10;;;;;;;97.20;49.53;;;3.30;99.90;;;;;;6074640;23;20154;-88
2022/01/12 10:46:41;;;;;;;92.07;45.60;;;3.40;99.90;;;;;;6074886;23;20151;-88
2022/01/12 10:49:22;;;;;;;89.25;44.95;;;3.50;99.90;;;;;;6073912;23;20155;-88
2022/01/12 10:52:18;;;;;;;89.43;48.30;;;3.50;99.90;;;;;;6075899;23;20151;-88
2022/01/12 10:54:54;;;;;;;92.40;47.78;;;3.40;99.90;;;;;;6100361;23;20197;-89
2022/01/12 10:58:09;;;;;;;92.13;47.17;;;3.50;99.90;;;;;;6100657;23;20228;-89
2022/01/12 11:15:30;;;;;;;82.47;23.17;;;3.70;99.90;;;;;;6068865;23;20208;-89
2022/01/12 11:18:37;;;;;;;;;;;;;;;;;;;;;
2022/01/12 11:21:31;;;;;;;89.13;22.30;;;3.70;99.90;;;;;;6067943;23;20239;-89
2022/01/12 11:24:05;;;;;;;82.80;18.40;;;3.70;99.90;;;;;;6067143;23;20175;-89
2022/01/12 11:30:38;;;;;;;80.95;17.98;;;3.80;99.90;;;;;;6067662;23;20188;-88
2022/01/12 11:33:09;;;;;;;78.70;16.77;;;3.80;99.90;;;;;;6046257;23;20154;-86
2022/01/12 11:35:40;;;;;;;83.43;21.15;;;3.80;99.90;;;;;;6126303;23;20170;-87
2022/01/12 11:38:06;;;;;;;77.90;16.83;;;3.80;99.90;;;;;;6129018;23;20497;-87
2022/01/12 11:40:47;;;;;;;82.50;20.05;;;3.80;99.90;;;;;;6126061;23;20147;-87
2022/01/12 11:44:00;;;;;;;83.50;20.83;;;3.90;99.90;;;;;;6127057;23;20150;-87
2022/01/12 11:46:43;;;;;;;84.45;16.83;;;3.90;99.90;;;;;;6123539;23;20161;-87
2022/01/12 11:49:09;;;;;;;86.30;20.90;;;3.90;99.90;;;;;;6088775;23;20151;-89
2022/01/12 11:51:45;;;;;;;82.47;21.17;;;3.80;99.90;;;;;;6102018;23;20500;-88
2022/01/12 11:54:38;;;;;;;;;;;;;;;;;;;;;
2022/01/12 11:57:19;;;;;;;86.53;29.10;;;3.90;99.90;;;;;;6128316;23;20250;-89
2022/01/12 12:00:19;;;;;;;90.35;31.52;;;3.80;99.90;;;;;;6124260;23;20151;-89
2022/01/12 12:02:51;;;;;;;96.38;36.90;;;3.90;99.90;;;;;;6126241;23;20151;-89
2022/01/12 12:05:42;;;;;;;90.68;33.20;;;4.00;99.90;;;;;;6126932;23;20162;-90
2022/01/12 12:08:14;;;;;;;95.40;42.55;;;4.10;99.90;;;;;;6126399;23;20158;-90
2022/01/12 12:10:48;;;;;;;97.70;45.80;;;4.00;99.90;;;;;;6126850;23;20216;-90
2022/01/12 12:13:36;;;;;;;102.68;55.22;;;4.10;99.90;;;;;;6126468;23;20233;-90
2022/01/12 12:16:56;;;;;;;;;;;;;;;;;;;;;
2022/01/12 12:19:47;;;;;;;100.88;52.35;;;4.20;99.90;;;;;;6105023;23;20225;-90
2022/01/12 12:32:16;;;;;;;;;;;;;;;;;;;;;
2022/01/12 12:38:06;;;;;;;106.53;53.90;;;4.10;99.90;;;;;;6130094;23;20193;-89
2022/01/12 12:41:10;;;;;;;99.53;39.15;;;4.20;99.90;;;;;;5987035;23;20527;-89
2022/01/12 12:44:22;;;;;;;104.32;38.80;;;4.10;99.90;;;;;;5963549;23;20492;-88
2022/01/12 12:47:04;;;;;;;107.28;34.47;;;4.10;99.90;;;;;;5982338;23;20158;-88
2022/01/12 12:49:39;;;;;;;109.07;41.35;;;4.10;99.90;;;;;;5986928;23;20256;-88
2022/01/12 12:52:13;;;;;;;103.28;38.35;;;4.10;99.90;;;;;;5987148;23;20468;-88
2022/01/12 12:54:56;;;;;;;106.70;42.55;;;4.20;99.90;;;;;;5986241;23;20177;-90
2022/01/12 12:57:25;;;;;;;108.65;50.03;;;4.20;99.90;;;;;;6013731;23;20191;-90
2022/01/12 13:00:16;;;;;;;119.43;56.47;;;4.20;99.90;;;;;;6072855;23;20151;-90
2022/01/12 13:02:47;;;;;;;122.90;55.25;;;4.20;99.90;;;;;;6073933;23;20143;-90
2022/01/12 13:05:18;;;;;;;113.45;52.70;;;4.30;99.90;;;;;;6072356;23;20178;-90
2022/01/12 13:07:48;;;;;;;117.90;50.55;;;4.30;99.90;;;;;;6073810;23;20151;-90
2022/01/12 13:10:21;;;;;;;113.57;58.92;;;4.30;99.90;;;;;;6072976;23;20171;-90
2022/01/12 13:13:02;;;;;;;117.93;57.78;;;4.30;99.90;;;;;;6069257;23;20175;-90
2022/01/12 13:15:45;;;;;;;117.15;58.47;;;4.20;99.90;;;;;;6070050;23;20159;-90
2022/01/12 13:18:24;;;;;;;117.90;61.25;;;4.20;99.90;;;;;;6068354;23;20156;-90
2022/01/12 13:21:08;;;;;;;119.78;66.07;;;4.20;99.90;;;;;;6068561;23;20170;-90
2022/01/12 13:23:54;;;;;;;113.80;64.28;;;4.20;99.90;;;;;;6069818;23;20128;-90
2022/01/12 13:26:34;;;;;;;117.05;61.78;;;4.10;99.90;;;;;;6117698;23;20228;-87
2022/01/12 13:29:10;;;;;;;117.53;62.45;;;4.20;99.90;;;;;;6133938;23;20219;-86
2022/01/12 13:31:48;;;;;;;116.40;67.60;;;4.20;99.90;;;;;;6133460;23;20130;-86
2022/01/12 13:34:19;;;;;;;128.15;71.68;;;4.20;99.90;;;;;;6121551;23;20175;-87
2022/01/12 13:36:50;;;;;;;124.25;78.70;;;4.10;99.90;;;;;;6103723;23;20175;-86
2022/01/12 13:39:24;;;;;;;125.97;74.03;;;4.10;99.90;;;;;;6102852;23;20151;-86
2022/01/12 13:41:52;;;;;;;123.25;67.50;;;4.10;99.90;;;;;;6102050;23;20170;-86
2022/01/12 13:44:20;;;;;;;125.22;76.95;;;4.20;99.90;;;;;;6102674;23;20167;-86
2022/01/12 13:47:12;;;;;;;115.72;71.57;;;4.20;99.90;;;;;;6104421;23;20143;-86
2022/01/12 13:49:41;;;;;;;134.75;73.93;;;4.20;99.90;;;;;;6079875;23;20155;-84
2022/01/12 13:52:09;;;;;;;122.32;76.00;;;4.10;99.90;;;;;;6102600;23;20210;-85
2022/01/12 13:54:41;;;;;;;132.98;98.38;;;4.10;99.90;;;;;;6101090;23;20640;-86
2022/01/12 13:57:11;;;;;;;132.95;85.10;;;4.10;99.90;;;;;;6103942;23;20605;-86
2022/01/12 13:59:45;;;;;;;128.30;84.18;;;4.20;99.90;;;;;;6104010;23;20128;-86
2022/01/12 14:02:15;;;;;;;125.25;83.20;;;4.10;99.90;;;;;;6104175;23;20139;-86
2022/01/12 14:05:06;;;;;;;138.82;86.10;;;4.10;99.90;;;;;;6102896;23;20550;-86
2022/01/12 14:07:40;;;;;;;142.25;101.85;;;4.10;99.90;;;;;;6105277;23;20143;-86
2022/01/12 14:10:10;;;;;;;127.18;80.07;;;4.10;99.90;;;;;;6103647;23;20157;-86
2022/01/12 14:12:37;;;;;;;123.38;80.32;;;4.10;99.90;;;;;;6102750;23;20198;-86
2022/01/12 14:18:06;;;;;;;117.00;74.18;;;4.00;99.90;;;;;;6104616;23;20175;-86
2022/01/12 14:20:45;;;;;;;120.72;71.00;;;4.10;99.90;;;;;;6103245;23;20151;-86
2022/01/12 14:23:15;;;;;;;132.77;108.95;;;4.20;99.90;;;;;;6104240;23;20194;-86
2022/01/12 14:25:55;;;;;;;126.00;85.25;;;4.10;99.90;;;;;;6103921;23;20186;-86
2022/01/12 14:28:41;;;;;;;127.45;80.70;;;4.10;99.90;;;;;;6104433;23;20154;-85
2022/01/12 14:31:12;;;;;;;137.48;84.95;;;4.10;99.90;;;;;;6104548;23;20151;-86
2022/01/12 14:33:40;;;;;;;116.28;84.72;;;4.10;99.90;;;;;;6106161;23;20126;-86
2022/01/12 14:36:06;;;;;;;119.28;76.03;;;4.10;99.90;;;;;;6104251;23;20178;-86
2022/01/12 14:38:49;;;;;;;127.57;97.27;;;4.00;99.90;;;;;;6105277;23;20151;-86
2022/01/12 14:41:19;;;;;;;124.63;82.63;;;4.00;99.90;;;;;;6105966;23;20706;-86
2022/01/12 14:43:50;;;;;;;132.15;91.32;;;4.00;99.90;;;;;;6106038;23;20207;-86
2022/01/12 14:46:46;;;;;;;131.75;85.95;;;4.00;99.90;;;;;;6104192;23;20167;-86
2022/01/12 14:50:17;;;;;;;130.82;90.07;;;4.00;99.90;;;;;;6104416;23;20174;-86
2022/01/12 14:52:49;;;;;;;123.70;70.45;;;4.00;99.90;;;;;;6093760;23;20153;-85
2022/01/12 14:55:28;;;;;;;126.40;81.20;;;4.00;99.90;;;;;;6127962;23;20171;-86
2022/01/12 14:58:11;;;;;;;120.80;76.65;;;4.00;99.90;;;;;;6100961;23;20189;-85
2022/01/12 15:01:24;;;;;;;131.20;96.65;;;4.00;99.90;;;;;;6100080;23;20155;-86
2022/01/12 15:04:05;;;;;;;121.80;85.65;;;4.00;99.90;;;;;;6104140;23;20167;-85
2022/01/12 15:13:42;;;;;;;119.72;79.65;;;4.00;99.90;;;;;;6091871;23;20613;-86
2022/01/12 15:16:08;;;;;;;116.82;86.32;;;4.00;99.90;;;;;;6102760;23;20175;-86
2022/01/12 15:18:59;;;;;;;;;;;;;;;;;;;;;
2022/01/12 15:22:24;;;;;;;120.68;76.95;;;4.00;99.90;;;;;;6103855;23;20402;-85
2022/01/12 15:25:13;;;;;;;;;;;;;;;;;;;;;
2022/01/12 15:28:07;;;;;;;123.25;79.47;;;4.00;99.90;;;;;;6103868;23;20171;-85
2022/01/12 15:34:13;;;;;;;124.80;78.25;;;4.00;99.90;;;;;;6043556;23;20176;-85
2022/01/12 15:37:39;;;;;;;124.97;87.25;;;4.00;99.90;;;;;;6044017;23;20255;-85
2022/01/12 15:41:15;;;;;;;124.53;85.88;;;4.00;99.90;;;;;;5931280;24;20176;-85
2022/01/12 15:43:41;;;;;;;113.60;74.10;;;4.00;99.90;;;;;;5956564;23;20156;-85
2022/01/12 15:46:14;;;;;;;110.93;67.50;;;4.00;99.90;;;;;;6044138;23;20208;-86
2022/01/12 15:48:49;;;;;;;139.30;100.28;;;4.00;99.90;;;;;;6042679;23;20153;-86
2022/01/12 15:51:21;;;;;;;134.95;105.38;;;3.90;99.90;;;;;;6044021;23;20230;-86
2022/01/12 15:54:07;;;;;;;126.00;95.85;;;3.90;99.90;;;;;;6042879;23;20188;-86
2022/01/12 15:56:36;;;;;;;121.30;81.45;;;3.90;99.90;;;;;;6043491;23;20176;-86
2022/01/12 15:59:04;;;;;;;117.47;76.05;;;3.90;99.90;;;;;;6020161;23;20219;-86
2022/01/12 16:01:33;;;;;;;132.63;91.75;;;4.00;99.90;;;;;;6044260;23;20176;-85
2022/01/12 16:04:09;;;;;;;116.80;81.63;;;3.90;99.90;;;;;;6083516;23;20299;-86
2022/01/12 16:06:35;;;;;;;132.00;89.50;;;3.90;99.90;;;;;;6103322;23;20143;-84
2022/01/12 16:09:02;;;;;;;128.75;95.22;;;3.90;99.90;;;;;;6102988;23;20155;-86
2022/01/12 16:11:28;;;;;;;131.98;98.32;;;3.90;99.90;;;;;;6103308;23;20584;-86
2022/01/12 16:13:54;;;;;;;136.03;98.47;;;3.90;99.90;;;;;;6101740;23;20179;-86
2022/01/12 16:16:25;;;;;;;135.80;98.15;;;3.90;99.90;;;;;;6103780;23;20419;-87
2022/01/12 16:19:11;;;;;;;133.48;95.50;;;3.90;99.90;;;;;;6105339;23;20132;-86
2022/01/12 16:23:05;;;;;;;131.63;81.45;;;4.00;99.90;;;;;;6103951;23;20143;-86
2022/01/12 16:25:02;;;;;;;134.85;89.07;;;4.00;99.90;;;;;;6090891;23;20187;-87
2022/01/12 16:27:31;;;;;;;136.15;96.15;;;3.90;99.90;;;;;;6103862;23;20230;-85
2022/01/12 16:30:03;;;;;;;143.25;113.28;;;3.90;99.90;;;;;;6102809;23;20147;-86
2022/01/12 16:32:32;;;;;;;128.93;88.28;;;4.00;99.90;;;;;;6103234;23;20147;-86
2022/01/12 16:35:06;;;;;;;140.30;85.05;;;4.00;99.90;;;;;;6104438;23;20159;-85
2022/01/12 16:37:34;;;;;;;138.75;95.22;;;4.00;99.90;;;;;;6103567;23;20183;-86
2022/01/12 16:40:08;;;;;;;138.85;99.90;;;3.90;99.90;;;;;;6103577;23;20143;-86
2022/01/12 16:42:43;;;;;;;137.98;91.00;;;3.90;99.90;;;;;;6102200;23;20154;-86
2022/01/12 16:45:16;;;;;;;139.63;94.05;;;3.90;99.90;;;;;;6103782;23;20493;-85
2022/01/12 16:47:45;;;;;;;139.23;106.30;;;3.90;99.90;;;;;;6103601;23;20140;-86
2022/01/12 16:50:17;;;;;;;149.25;114.22;;;3.90;99.90;;;;;;6103593;23;20143;-86
2022/01/12 16:52:52;;;;;;;142.77;99.53;;;3.90;99.90;;;;;;6103224;23;20158;-86
2022/01/12 16:55:39;;;;;;;143.10;112.55;;;3.90;99.90;;;;;;6101482;23;20170;-86
2022/01/12 16:58:06;;;;;;;132.57;89.70;;;3.90;99.90;;;;;;6101930;23;20261;-86
2022/01/12 17:00:34;;;;;;;144.40;97.20;;;4.00;99.90;;;;;;6103094;23;20538;-86
2022/01/12 17:03:01;;;;;;;145.73;95.53;;;3.90;99.90;;;;;;6101614;23;20179;-86
2022/01/12 17:05:27;;;;;;;127.72;91.22;;;4.00;99.90;;;;;;6101671;23;20182;-86
2022/01/12 17:07:55;;;;;;;143.52;96.40;;;4.00;99.90;;;;;;6102666;23;20155;-86
2022/01/12 17:10:42;;;;;;;139.85;108.85;;;4.00;99.90;;;;;;6102824;23;20143;-86
2022/01/12 17:13:29;;;;;;;144.55;104.20;;;4.00;99.90;;;;;;6102133;23;20529;-87
2022/01/12 17:20:03;;;;;;;;;;;;;;;;;;;;;
2022/01/12 17:22:41;;;;;;;144.65;106.68;;;4.00;99.90;;;;;;6099021;23;20167;-86
2022/01/12 17:25:30;;;;;;;125.35;91.13;;;4.00;99.90;;;;;;6101232;23;20214;-85
2022/01/12 17:28:19;;;;;;;118.50;83.05;;;4.00;99.90;;;;;;6103272;23;20166;-86
2022/01/12 17:30:52;;;;;;;131.23;97.55;;;4.00;99.90;;;;;;6102166;23;20493;-86
2022/01/12 17:33:25;;;;;;;124.78;100.80;;;4.00;99.90;;;;;;6103570;23;20158;-86
2022/01/12 17:35:51;;;;;;;119.57;93.60;;;4.00;99.90;;;;;;6101528;23;20497;-86
2022/01/12 17:38:47;;;;;;;125.50;104.28;;;4.00;99.90;;;;;;6101785;23;20154;-86
2022/01/12 17:41:16;;;;;;;118.47;84.45;;;4.10;99.90;;;;;;6092101;23;20175;-85
2022/01/12 17:44:06;;;;;;;119.18;96.32;;;4.10;99.90;;;;;;6101282;23;20180;-86
2022/01/12 17:46:41;;;;;;;119.68;97.85;;;4.00;99.90;;;;;;6102424;23;20234;-84
2022/01/12 17:49:18;;;;;;;124.88;86.85;;;4.10;99.90;;;;;;6102541;23;20138;-86
2022/01/12 17:51:53;;;;;;;122.68;93.18;;;4.10;99.90;;;;;;6103356;23;20465;-87
2022/01/12 17:55:03;;;;;;;138.65;115.68;;;4.20;99.90;;;;;;6102567;23;20171;-86
2022/01/12 17:58:06;;;;;;;116.15;89.55;;;4.20;99.90;;;;;;6100964;23;20178;-86
2022/01/12 18:00:58;;;;;;;120.10;91.38;;;4.10;99.90;;;;;;6023383;23;20234;-86
2022/01/12 18:03:33;;;;;;;130.20;102.35;;;4.10;99.90;;;;;;5984263;23;20155;-86
2022/01/12 18:06:14;;;;;;;127.32;100.25;;;4.10;99.90;;;;;;6101842;23;20161;-86
2022/01/12 18:09:30;;;;;;;124.57;97.75;;;4.10;99.90;;;;;;6106614;23;20147;-86
2022/01/12 18:12:16;;;;;;;114.18;80.97;;;4.10;99.90;;;;;;6098139;23;20147;-86
2022/01/12 18:14:55;;;;;;;118.82;90.93;;;4.00;99.90;;;;;;6105219;23;20174;-86
2022/01/12 18:17:25;;;;;;;123.20;94.65;;;4.00;99.90;;;;;;6104993;23;20179;-86
2022/01/12 18:19:58;;;;;;;124.97;97.07;;;4.00;99.90;;;;;;6107238;23;20213;-86
2022/01/12 18:22:30;;;;;;;123.18;93.53;;;4.00;99.90;;;;;;6104744;23;20158;-85
2022/01/12 18:25:09;;;;;;;121.40;99.28;;;4.00;99.90;;;;;;6103825;23;20167;-86
2022/01/12 18:27:40;;;;;;;116.82;90.65;;;3.90;99.90;;;;;;6104358;23;20173;-86
2022/01/12 18:30:15;;;;;;;114.85;81.15;;;3.90;99.90;;;;;;6107799;23;20127;-85
2022/01/12 18:33:06;;;;;;;112.90;84.57;;;4.00;99.90;;;;;;6106081;23;20178;-86
2022/01/12 18:35:44;;;;;;;121.72;99.95;;;4.00;99.90;;;;;;6104743;23;20171;-86
2022/01/12 18:38:19;;;;;;;116.60;85.32;;;4.00;99.90;;;;;;6106149;23;20170;-85
2022/01/12 18:41:01;;;;;;;118.38;96.00;;;4.00;99.90;;;;;;6105720;23;20148;-86
2022/01/12 18:43:38;;;;;;;120.25;88.07;;;4.10;99.90;;;;;;6105747;23;20151;-85
2022/01/12 18:46:24;;;;;;;;;;;;;;;;;;;;;
2022/01/12 18:48:53;;;;;;;121.53;83.68;;;4.00;99.90;;;;;;6106989;23;20621;-86
2022/01/12 18:51:30;;;;;;;121.93;92.88;;;4.00;99.90;;;;;;6105267;23;20147;-86
2022/01/12 18:54:00;;;;;;;117.45;91.20;;;4.00;99.90;;;;;;6104648;23;20683;-85
2022/01/12 18:56:39;;;;;;;121.82;102.22;;;4.00;99.90;;;;;;6107198;23;20175;-86
2022/01/12 18:59:20;;;;;;;121.72;90.40;;;4.00;99.90;;;;;;6107419;23;20223;-86
2022/01/12 19:02:00;;;;;;;124.03;102.47;;;4.00;99.90;;;;;;6106315;23;20143;-85
2022/01/12 19:04:44;;;;;;;112.65;83.45;;;4.00;99.90;;;;;;6105394;23;20173;-85
2022/01/12 19:07:21;;;;;;;113.05;90.55;;;4.00;99.90;;;;;;6105488;23;20229;-86
2022/01/12 19:09:52;;;;;;;124.22;88.25;;;3.90;99.90;;;;;;6104860;23;20158;-86
2022/01/12 19:12:26;;;;;;;118.93;91.25;;;4.00;99.90;;;;;;6105517;23;20439;-86
2022/01/12 19:14:53;;;;;;;123.57;110.07;;;4.00;99.90;;;;;;6104351;23;20175;-85
2022/01/12 19:17:42;;;;;;;122.13;92.97;;;4.00;99.90;;;;;;6103939;23;20182;-85
2022/01/12 19:20:14;;;;;;;121.25;101.60;;;4.00;99.90;;;;;;6101904;23;20247;-86
2022/01/12 19:22:49;;;;;;;130.73;106.13;;;4.00;99.90;;;;;;6104606;23;20195;-86
2022/01/12 19:42:59;;;;;;;;;;;;;;;;;;;;;
2022/01/12 21:01:14;;;;;;;;;;;;;;;;;;;;;
2022/01/12 22:02:19;;;;;;;108.32;50.63;;;4.10;99.90;;;;;;6078190;23;20202;-90
2022/01/12 22:08:47;;;;;;;100.57;40.42;;;4.10;99.90;;;;;;6011293;23;20197;-90
2022/01/12 22:11:41;;;;;;;110.65;42.35;;;4.10;99.90;;;;;;6011698;23;20579;-90
2022/01/12 22:17:30;;;;;;;108.05;45.78;;;4.00;99.90;;;;;;6098599;23;20197;-90
2022/01/12 22:20:31;;;;;;;117.00;54.03;;;4.00;99.90;;;;;;6060730;23;20151;-90
2022/01/12 22:23:21;;;;;;;115.82;49.63;;;3.90;99.90;;;;;;6052901;23;20147;-90
2022/01/12 22:26:19;;;;;;;118.30;59.20;;;3.90;99.90;;;;;;6074920;23;20175;-90
2022/01/12 22:36:56;;;;;;;;;;;;;;;;;;;;;
2022/01/12 22:46:21;;;;;;;110.18;42.38;;;3.90;99.90;;;;;;5965217;24;20171;-90
2022/01/12 22:52:43;;;;;;;107.00;37.45;;;4.00;99.90;;;;;;5984281;24;20205;-90
2022/01/12 22:59:30;;;;;;;103.03;37.15;;;4.00;99.90;;;;;;5956420;24;20173;-90
2022/01/12 23:15:22;;;;;;;111.60;41.83;;;3.90;99.90;;;;;;6079154;23;20648;-90
2022/01/12 23:18:13;;;;;;;115.85;47.95;;;3.90;99.90;;;;;;6100917;23;20266;-90
2022/01/12 23:21:45;;;;;;;;;;;;;;;;;;;;;
2022/01/12 23:24:49;;;;;;;120.03;49.22;;;3.80;99.90;;;;;;6063570;23;20250;-90
2022/01/12 23:27:33;;;;;;;126.65;48.65;;;3.80;99.90;;;;;;6066609;23;20174;-90
2022/01/12 23:30:46;;;;;;;125.72;49.00;;;3.80;99.90;;;;;;6100755;23;20166;-90
2022/01/12 23:55:39;;;;;;;120.28;48.97;;;3.90;99.90;;;;;;6044321;23;20164;-90
2022/01/12 23:58:20;;;;;;;125.80;45.97;;;3.90;99.90;;;;;;5954519;24;20189;-90
